Walkerville, Michigan
Current Conditions -  °F | °C
As of 9:10 AM on Saturday 25 Oct 2014 (Local Time) from KFFX Reporting Station
Haze Haze  
Wind Chill: 55°   Ceiling: 900
Heat Index: 55°   Visibility: 4mi
Dew Point: 53°   Wind: 8mph
Humidity: 95%   Direction: 270°W
Pressure: 29.83"   Gusts: NA
Location:  43.71°N, 86.12°W
Report Text: KFFX 251310Z AUTO 27007KT 4SM BR OVC009 13/12 A2983 RMK AO2 T01250117
Loading
Personal Weather Stations






























Interactive Weather Map
Tropical Storm Tracking
New forecast layout! Learn more

10-Day Weather Forecast

Advertisements
Track Severe Weather on mobile